createdAt,value
2023-02-11T00:02:11.331Z,20.47
2023-02-11T00:04:49.661Z,21.63
2023-02-11T00:07:20.172Z,21.70
2023-02-11T00:09:50.827Z,22.07
2023-02-11T00:12:21.368Z,21.67
2023-02-11T00:14:54.363Z,21.80
2023-02-11T00:17:25.333Z,21.50
2023-02-11T00:20:09.419Z,22.73
2023-02-11T00:22:47.314Z,23.50
2023-02-11T00:25:27.876Z,21.77
2023-02-11T00:28:05.512Z,21.30
2023-02-11T00:30:42.612Z,22.93
2023-02-11T00:33:15.857Z,21.60
2023-02-11T00:35:49.722Z,22.80
2023-02-11T00:38:30.379Z,22.83
2023-02-11T00:41:00.200Z,23.87
2023-02-11T00:43:29.359Z,22.33
2023-02-11T00:46:04.401Z,23.20
2023-02-11T00:48:38.138Z,21.70
2023-02-11T00:51:17.119Z,20.73
2023-02-11T00:53:48.013Z,21.70
2023-02-11T00:56:19.213Z,21.87
2023-02-11T00:58:48.810Z,21.80
2023-02-11T01:01:27.472Z,23.70
2023-02-11T01:04:02.829Z,23.13
2023-02-11T01:06:36.742Z,24.10
2023-02-11T01:09:12.023Z,22.33
2023-02-11T01:11:41.457Z,23.23
2023-02-11T01:14:13.623Z,23.30
2023-02-11T01:16:44.647Z,22.50
2023-02-11T01:22:00.911Z,22.30
2023-02-11T01:24:38.163Z,22.63
2023-02-11T01:27:11.340Z,22.97
2023-02-11T01:29:42.284Z,22.53
2023-02-11T01:32:26.597Z,23.10
2023-02-11T01:34:58.489Z,22.40
2023-02-11T01:40:18.231Z,23.20
2023-02-11T01:42:51.031Z,23.13
2023-02-11T01:45:53.833Z,22.50
2023-02-11T01:48:34.247Z,22.50
2023-02-11T01:51:10.652Z,24.00
2023-02-11T01:53:58.786Z,24.30
2023-02-11T01:56:47.645Z,24.43
2023-02-11T01:59:25.885Z,23.33
2023-02-11T02:02:05.312Z,24.03
2023-02-11T02:04:53.073Z,25.27
2023-02-11T02:07:28.607Z,24.60
2023-02-11T02:10:28.151Z,25.97
2023-02-11T02:13:10.167Z,27.00
2023-02-11T02:15:40.694Z,25.53
2023-02-11T02:18:34.731Z,25.10
2023-02-11T02:27:49.450Z,27.00
2023-02-11T02:33:56.054Z,24.87
2023-02-11T02:36:34.180Z,26.30
2023-02-11T02:39:10.075Z,25.40
2023-02-11T02:41:40.499Z,26.87
2023-02-11T02:44:22.254Z,26.97
2023-02-11T02:49:54.489Z,26.27
2023-02-11T05:23:29.148Z,28.23
2023-02-11T05:29:01.892Z,28.57
2023-02-11T06:49:49.599Z,24.80
2023-02-11T06:52:21.352Z,22.97
2023-02-11T06:54:53.396Z,24.67
2023-02-11T07:00:36.142Z,25.80
2023-02-11T07:03:14.620Z,24.37
2023-02-11T07:05:55.476Z,25.33
2023-02-11T07:08:32.892Z,25.47
2023-02-11T07:11:13.836Z,24.80
2023-02-11T07:13:52.513Z,24.80
2023-02-11T07:16:21.805Z,23.30
2023-02-11T07:18:53.000Z,24.27
2023-02-11T07:31:09.524Z,24.57
2023-02-11T07:33:38.519Z,24.63
2023-02-11T07:36:15.983Z,23.63
2023-02-11T07:38:48.339Z,24.13
2023-02-11T07:41:27.287Z,23.80
2023-02-11T07:43:56.428Z,22.90
2023-02-11T07:46:30.317Z,22.37
2023-02-11T07:49:00.045Z,23.53
2023-02-11T07:51:31.200Z,22.67
2023-02-11T07:54:05.563Z,22.70
2023-02-11T07:56:42.637Z,24.37
2023-02-11T07:59:12.809Z,23.27
2023-02-11T08:01:51.458Z,23.07
2023-02-11T08:04:28.032Z,22.27
2023-02-11T08:07:01.835Z,20.97
2023-02-11T08:09:32.816Z,22.90
2023-02-11T08:12:04.089Z,22.93
2023-02-11T08:14:35.271Z,22.60
2023-02-11T08:17:09.571Z,22.10
2023-02-11T08:19:39.458Z,20.13
2023-02-11T08:22:11.067Z,20.67
2023-02-11T08:24:40.055Z,21.40
2023-02-11T08:27:11.732Z,22.00
2023-02-11T08:29:42.166Z,21.50
2023-02-11T08:32:14.605Z,20.93
2023-02-11T08:34:54.175Z,21.00
2023-02-11T08:37:25.430Z,22.00
2023-02-11T08:39:54.426Z,20.93
2023-02-11T08:42:28.669Z,20.70
2023-02-11T08:45:00.244Z,20.63
2023-02-11T08:47:31.510Z,20.53
2023-02-11T08:50:03.076Z,21.63
2023-02-11T08:52:31.385Z,19.27
2023-02-11T08:55:06.063Z,20.83
2023-02-11T08:57:38.748Z,20.40
2023-02-11T09:00:13.741Z,21.20
2023-02-11T09:02:48.269Z,20.20
2023-02-11T09:05:24.819Z,20.33
2023-02-11T09:07:55.790Z,21.03
2023-02-11T09:10:24.667Z,22.10
2023-02-11T09:12:59.182Z,21.90
2023-02-11T09:15:28.645Z,20.13
2023-02-11T09:18:01.507Z,20.03
2023-02-11T09:20:32.656Z,18.93
2023-02-11T09:23:08.753Z,21.43
2023-02-11T09:25:42.614Z,20.47
2023-02-11T09:28:20.079Z,22.40
2023-02-11T09:30:56.088Z,21.07
2023-02-11T09:33:27.521Z,21.80
2023-02-11T09:35:56.909Z,21.07
2023-02-11T09:38:27.711Z,20.43
2023-02-11T09:40:56.835Z,20.07
2023-02-11T09:43:28.814Z,21.27
2023-02-11T09:46:05.104Z,19.33
2023-02-11T09:48:52.892Z,21.47
2023-02-11T09:51:28.393Z,18.83
2023-02-11T09:54:05.535Z,19.97
2023-02-11T09:56:39.502Z,19.70
2023-02-11T09:59:14.610Z,20.30
2023-02-11T10:01:49.447Z,18.60
2023-02-11T10:04:35.786Z,19.23
2023-02-11T10:07:12.042Z,19.87
2023-02-11T10:10:03.566Z,18.93
2023-02-11T10:12:52.942Z,19.13
2023-02-11T10:15:29.661Z,17.60
2023-02-11T10:18:12.192Z,17.73
2023-02-11T10:20:56.469Z,18.67
2023-02-11T10:23:28.207Z,17.23
2023-02-11T10:26:08.196Z,17.50
2023-02-11T10:28:49.319Z,15.50
2023-02-11T10:31:23.085Z,16.93
2023-02-11T10:33:58.031Z,16.73
2023-02-11T10:36:37.217Z,17.87
2023-02-11T10:39:16.191Z,15.87
2023-02-11T10:41:49.056Z,17.00
2023-02-11T10:44:28.299Z,17.97
2023-02-11T10:47:02.828Z,17.77
2023-02-11T10:49:42.648Z,15.57
2023-02-11T10:52:24.153Z,17.53
2023-02-11T10:55:02.157Z,16.70
2023-02-11T10:57:42.257Z,16.63
2023-02-11T11:00:28.469Z,15.53
2023-02-11T11:03:01.056Z,15.70
2023-02-11T11:05:33.070Z,16.23
2023-02-11T11:08:07.717Z,16.60
2023-02-11T11:10:45.838Z,17.07
2023-02-11T11:13:37.598Z,16.27
2023-02-11T11:16:29.602Z,16.30
2023-02-11T11:19:34.159Z,17.70
2023-02-11T11:22:07.380Z,16.60
2023-02-11T11:24:55.286Z,15.53
2023-02-11T11:27:26.603Z,15.50
2023-02-11T11:30:06.089Z,13.97
2023-02-11T11:32:49.305Z,15.07
2023-02-11T11:35:36.863Z,15.03
2023-02-11T11:38:06.757Z,13.90
2023-02-11T11:41:23.306Z,14.37
2023-02-11T11:44:10.074Z,14.13
2023-02-11T11:46:47.883Z,14.63
2023-02-11T11:49:41.567Z,13.53
2023-02-11T11:52:35.128Z,13.10
2023-02-11T11:55:08.164Z,11.57
2023-02-11T11:57:53.480Z,12.10
2023-02-11T12:00:39.843Z,11.80
2023-02-11T12:03:49.412Z,13.93
2023-02-11T12:06:53.413Z,12.40
2023-02-11T12:09:28.023Z,13.20
2023-02-11T12:12:34.809Z,11.93
2023-02-11T12:15:33.696Z,11.60
2023-02-11T12:18:51.512Z,11.30
2023-02-11T12:21:39.985Z,11.57
2023-02-11T12:24:32.213Z,11.40
2023-02-11T12:27:15.809Z,9.70
2023-02-11T12:30:02.530Z,9.43
2023-02-11T12:32:43.861Z,9.83
2023-02-11T12:35:32.905Z,10.00
2023-02-11T12:38:37.370Z,12.17
2023-02-11T12:41:48.764Z,11.10
2023-02-11T12:44:27.599Z,11.63
2023-02-11T12:46:59.387Z,12.87
2023-02-11T12:50:06.654Z,12.10
2023-02-11T12:53:04.087Z,12.43
2023-02-11T12:55:38.841Z,13.00
2023-02-11T12:58:14.629Z,12.83
2023-02-11T13:00:54.313Z,13.60
2023-02-11T13:03:30.280Z,12.63
2023-02-11T13:06:06.579Z,13.30
2023-02-11T13:08:39.915Z,11.67
2023-02-11T13:11:16.116Z,12.70
2023-02-11T13:13:59.276Z,13.10
2023-02-11T13:16:41.394Z,13.27
2023-02-11T13:19:25.902Z,13.90
2023-02-11T13:22:21.994Z,13.43
2023-02-11T13:25:00.200Z,14.77
2023-02-11T13:27:35.219Z,14.23
2023-02-11T13:30:28.226Z,14.10
2023-02-11T13:33:32.300Z,14.27
2023-02-11T13:36:25.539Z,16.03
2023-02-11T13:39:07.074Z,15.67
2023-02-11T13:41:40.816Z,14.80
2023-02-11T13:44:30.768Z,15.00
2023-02-11T13:47:07.352Z,15.20
2023-02-11T13:49:42.063Z,15.10
2023-02-11T13:52:29.389Z,15.60
2023-02-11T13:55:08.529Z,15.47
2023-02-11T13:57:44.012Z,17.37
2023-02-11T14:00:50.075Z,15.77
2023-02-11T14:03:51.123Z,15.90
2023-02-11T14:06:47.758Z,13.80
2023-02-11T14:09:44.499Z,14.73
2023-02-11T14:12:47.333Z,15.90
2023-02-11T14:15:25.529Z,15.80
2023-02-11T14:17:59.705Z,15.13
2023-02-11T14:20:56.657Z,14.77
2023-02-11T14:23:33.117Z,14.13
2023-02-11T14:26:24.505Z,14.20
2023-02-11T14:29:03.365Z,13.63
2023-02-11T14:31:39.895Z,15.20
2023-02-11T14:34:50.270Z,13.97
2023-02-11T14:37:45.614Z,13.40
2023-02-11T14:40:28.589Z,13.40
2023-02-11T14:43:15.912Z,14.50
2023-02-11T14:46:08.847Z,14.17
2023-02-11T14:48:43.557Z,14.13
2023-02-11T14:51:29.177Z,13.93
2023-02-11T14:54:15.586Z,14.17
2023-02-11T14:57:04.542Z,13.30
2023-02-11T14:59:53.855Z,12.43
2023-02-11T15:02:29.593Z,12.90
2023-02-11T15:05:29.311Z,12.67
2023-02-11T15:08:12.554Z,12.60
2023-02-11T15:10:46.348Z,11.80
2023-02-11T15:13:21.541Z,11.97
2023-02-11T15:16:24.956Z,12.93
2023-02-11T15:19:20.618Z,12.20
2023-02-11T15:21:53.526Z,12.50
2023-02-11T15:24:33.403Z,11.60
2023-02-11T15:27:16.844Z,11.07
2023-02-11T15:29:54.911Z,11.40
2023-02-11T15:32:33.675Z,11.00
2023-02-11T15:35:14.880Z,12.03
2023-02-11T15:37:56.122Z,11.43
2023-02-11T15:40:34.925Z,11.50
2023-02-11T15:43:07.528Z,10.67
2023-02-11T15:45:49.268Z,12.33
2023-02-11T15:48:24.613Z,12.63
2023-02-11T15:51:01.326Z,11.40
2023-02-11T15:53:37.978Z,11.90
2023-02-11T15:56:27.662Z,11.80
2023-02-11T15:59:01.424Z,16.00
2023-02-11T16:01:37.463Z,21.47
2023-02-11T16:04:21.775Z,15.40
2023-02-11T16:07:00.225Z,24.20
2023-02-11T16:09:43.179Z,20.33
2023-02-11T16:12:29.687Z,14.73
2023-02-11T16:15:34.023Z,12.60
2023-02-11T16:18:21.041Z,14.50
2023-02-11T16:20:51.169Z,12.77
2023-02-11T16:23:26.643Z,14.00
2023-02-11T16:26:11.195Z,13.33
2023-02-11T16:28:53.064Z,13.03
2023-02-11T16:31:33.144Z,13.07
2023-02-11T16:34:06.269Z,12.70
2023-02-11T16:36:54.734Z,13.03
2023-02-11T16:39:49.583Z,16.70
2023-02-11T16:42:36.146Z,14.17
2023-02-11T16:45:16.506Z,12.53
2023-02-11T16:47:47.253Z,14.67
2023-02-11T16:50:25.075Z,15.40
2023-02-11T16:52:55.598Z,13.00
2023-02-11T16:55:46.869Z,14.00
2023-02-11T16:58:25.889Z,14.60
2023-02-11T17:01:14.198Z,13.47
2023-02-11T17:03:46.174Z,14.70
2023-02-11T17:06:24.174Z,14.23
2023-02-11T17:08:54.287Z,13.03
2023-02-11T17:11:30.184Z,14.13
2023-02-11T17:14:02.753Z,13.93
2023-02-11T17:16:34.688Z,12.83
2023-02-11T17:19:18.992Z,14.33
2023-02-11T17:21:56.428Z,13.47
2023-02-11T17:24:28.694Z,15.17
2023-02-11T17:27:13.756Z,13.37
2023-02-11T17:29:53.148Z,14.17
2023-02-11T17:32:22.903Z,13.93
2023-02-11T17:34:57.092Z,14.20
2023-02-11T17:37:28.156Z,14.50
2023-02-11T17:40:06.704Z,12.80
2023-02-11T17:42:51.096Z,14.90
2023-02-11T17:45:22.489Z,14.27
2023-02-11T17:47:53.704Z,14.30
2023-02-11T17:50:29.144Z,15.37
2023-02-11T17:53:00.080Z,15.53
2023-02-11T17:55:38.562Z,15.00
2023-02-11T17:58:14.084Z,14.57
2023-02-11T18:00:45.248Z,16.00
2023-02-11T18:03:18.436Z,15.50
2023-02-11T18:05:47.976Z,14.53
2023-02-11T18:08:22.662Z,14.57
2023-02-11T18:11:04.409Z,14.93
2023-02-11T18:14:00.833Z,15.03
2023-02-11T18:16:38.201Z,15.70
2023-02-11T18:19:15.721Z,15.07
2023-02-11T18:22:00.899Z,13.73
2023-02-11T18:24:37.453Z,15.07
2023-02-11T18:27:15.826Z,15.47
2023-02-11T18:29:51.071Z,16.13
2023-02-11T18:32:29.621Z,15.70
2023-02-11T18:35:02.141Z,16.73
2023-02-11T18:37:33.500Z,17.20
2023-02-11T18:40:09.085Z,15.50
2023-02-11T18:42:45.275Z,16.73
2023-02-11T18:45:20.315Z,15.57
2023-02-11T18:48:08.861Z,16.40
2023-02-11T18:50:41.098Z,15.43
2023-02-11T18:53:21.225Z,16.20
2023-02-11T18:56:02.065Z,16.50
2023-02-11T18:58:40.747Z,17.60
2023-02-11T19:01:31.121Z,15.73
2023-02-11T19:04:10.936Z,17.33
2023-02-11T19:06:43.564Z,15.97
2023-02-11T19:09:20.310Z,16.90
2023-02-11T19:11:58.662Z,16.43
2023-02-11T19:14:32.866Z,17.20
2023-02-11T19:17:19.352Z,16.67
2023-02-11T19:19:51.494Z,16.20
2023-02-11T19:22:23.304Z,14.83
2023-02-11T19:24:55.450Z,16.23
2023-02-11T19:27:25.964Z,16.03
2023-02-11T19:30:06.782Z,15.93
2023-02-11T19:32:42.863Z,16.20
2023-02-11T19:35:18.616Z,15.10
2023-02-11T19:38:00.599Z,15.77
2023-02-11T19:40:32.853Z,16.13
2023-02-11T19:43:11.124Z,16.97
2023-02-11T19:45:45.057Z,15.33
2023-02-11T19:48:25.505Z,17.53
2023-02-11T19:51:06.933Z,16.67
2023-02-11T19:53:38.074Z,15.70
2023-02-11T19:56:18.138Z,18.20
2023-02-11T19:58:54.705Z,16.20
2023-02-11T20:01:39.383Z,17.40
2023-02-11T20:04:19.981Z,16.90
2023-02-11T20:06:55.944Z,16.20
2023-02-11T20:09:35.824Z,17.07
2023-02-11T20:12:09.335Z,15.63
2023-02-11T20:14:43.189Z,16.70
2023-02-11T20:17:21.942Z,16.30
2023-02-11T20:20:35.802Z,16.60
2023-02-11T20:23:08.979Z,16.80
2023-02-11T20:25:52.776Z,16.00
2023-02-11T20:28:24.675Z,16.47
2023-02-11T20:31:05.442Z,16.27
2023-02-11T20:34:01.974Z,16.57
2023-02-11T20:36:42.396Z,17.63
2023-02-11T20:39:18.051Z,17.67
2023-02-11T20:41:51.348Z,15.77
2023-02-11T20:44:34.168Z,16.40
2023-02-11T20:47:10.417Z,17.37
2023-02-11T20:49:50.825Z,17.97
2023-02-11T20:52:32.679Z,18.43
2023-02-11T20:55:04.296Z,18.17
2023-02-11T20:57:40.462Z,16.57
2023-02-11T21:00:29.060Z,16.77
2023-02-11T21:03:04.133Z,17.10
2023-02-11T21:05:52.192Z,16.77
2023-02-11T21:08:51.452Z,15.80
2023-02-11T21:11:25.685Z,17.27
2023-02-11T21:14:03.357Z,16.80
2023-02-11T21:16:43.640Z,16.63
2023-02-11T21:19:23.033Z,18.00
2023-02-11T21:22:01.833Z,17.40
2023-02-11T21:24:38.335Z,16.70
2023-02-11T21:27:15.628Z,18.50
2023-02-11T21:29:53.744Z,17.57
2023-02-11T21:32:24.338Z,20.37
2023-02-11T21:37:45.566Z,17.70
2023-02-11T21:40:34.866Z,17.70
2023-02-11T21:43:08.327Z,16.70
2023-02-11T21:45:48.971Z,17.90
2023-02-11T21:48:28.589Z,17.40
2023-02-11T21:50:58.311Z,16.83
2023-02-11T21:53:35.755Z,17.70
2023-02-11T21:56:18.856Z,17.50
2023-02-11T21:58:59.274Z,17.57
2023-02-11T22:01:31.647Z,17.43
2023-02-11T22:04:09.441Z,16.80
2023-02-11T22:06:39.166Z,16.97
2023-02-11T22:09:24.084Z,18.07
2023-02-11T22:11:56.870Z,17.00
2023-02-11T22:14:30.116Z,17.60
2023-02-11T22:17:04.608Z,17.50
2023-02-11T22:19:42.995Z,17.90
2023-02-11T22:22:20.804Z,17.83
2023-02-11T22:25:04.827Z,18.73
2023-02-11T22:27:39.162Z,17.50
2023-02-11T22:30:12.152Z,17.57
2023-02-11T22:32:50.921Z,18.27
2023-02-11T22:35:23.420Z,17.97
2023-02-11T22:37:52.832Z,18.43
2023-02-11T22:40:23.827Z,17.60
2023-02-11T22:43:00.683Z,17.00
2023-02-11T22:45:31.518Z,17.20
2023-02-11T22:48:01.001Z,18.47
2023-02-11T22:50:32.019Z,18.50
2023-02-11T22:53:01.751Z,17.00
2023-02-11T22:55:30.657Z,18.10
2023-02-11T22:58:06.924Z,18.80
2023-02-11T23:00:41.566Z,18.10
2023-02-11T23:03:16.830Z,18.10
2023-02-11T23:05:48.121Z,18.90
2023-02-11T23:08:22.026Z,19.07
2023-02-11T23:10:52.653Z,19.53
2023-02-11T23:13:23.391Z,19.60
2023-02-11T23:15:55.167Z,18.53
2023-02-11T23:18:29.480Z,18.40
2023-02-11T23:21:06.530Z,18.63
2023-02-11T23:23:38.868Z,20.10
2023-02-11T23:26:14.078Z,18.60
2023-02-11T23:29:04.513Z,18.00
2023-02-11T23:31:40.017Z,18.60
2023-02-11T23:34:16.844Z,18.60
2023-02-11T23:36:48.870Z,19.63
2023-02-11T23:39:22.669Z,18.30
2023-02-11T23:41:58.973Z,18.33
2023-02-11T23:44:32.122Z,18.10
2023-02-11T23:47:03.733Z,16.93
2023-02-11T23:49:32.415Z,17.70
2023-02-11T23:52:01.915Z,17.37
2023-02-11T23:54:30.375Z,19.70
2023-02-11T23:57:05.846Z,18.17
2023-02-11T23:59:38.289Z,17.80
